createdAt,value
2017-01-05T00:00:04.671Z,1021.64
2017-01-05T00:05:04.687Z,1021.53
2017-01-05T00:10:04.648Z,1021.47
2017-01-05T00:15:04.564Z,1021.57
2017-01-05T00:20:04.495Z,1021.52
2017-01-05T00:25:05.206Z,1021.52
2017-01-05T00:30:05.326Z,1021.58
2017-01-05T00:35:05.328Z,1021.61
2017-01-05T00:40:04.492Z,1021.72
2017-01-05T00:45:04.417Z,1021.78
2017-01-05T00:50:05.230Z,1021.92
2017-01-05T00:55:05.212Z,1021.97
2017-01-05T01:00:05.444Z,1022.01
2017-01-05T01:05:05.327Z,1022.13
2017-01-05T01:10:05.329Z,1022.2
2017-01-05T01:15:05.223Z,1022.23
2017-01-05T01:20:05.350Z,1022.28
2017-01-05T01:25:04.359Z,1022.32
2017-01-05T01:30:04.390Z,1022.47
2017-01-05T01:35:05.242Z,1022.58
2017-01-05T01:40:04.580Z,1022.61
2017-01-05T01:45:04.523Z,1022.65
2017-01-05T01:50:04.696Z,1022.72
2017-01-05T01:55:04.526Z,1022.81
2017-01-05T02:00:04.466Z,1022.91
2017-01-05T02:05:05.271Z,1022.94
2017-01-05T02:10:04.849Z,1022.91
2017-01-05T02:15:04.622Z,1022.92
2017-01-05T02:20:04.616Z,1022.94
2017-01-05T02:25:04.445Z,1023.03
2017-01-05T02:30:04.557Z,1023.18
2017-01-05T02:35:04.862Z,1023.27
2017-01-05T02:40:04.910Z,1023.41
2017-01-05T02:45:04.703Z,1023.57
2017-01-05T02:50:04.412Z,1023.58
2017-01-05T02:55:04.410Z,1023.62
2017-01-05T03:00:05.784Z,1023.72
2017-01-05T03:05:09.583Z,1023.78
2017-01-05T03:10:04.293Z,1023.8
2017-01-05T03:15:05.264Z,1023.9
2017-01-05T03:20:05.220Z,1023.97
2017-01-05T03:25:05.098Z,1024.01
2017-01-05T03:30:04.963Z,1024.11
2017-01-05T03:35:04.959Z,1024.26
2017-01-05T03:40:05.058Z,1024.45
2017-01-05T03:45:05.062Z,1024.53
2017-01-05T03:50:05.175Z,1024.7
2017-01-05T03:55:05.287Z,1024.78
2017-01-05T04:00:05.726Z,1024.95
2017-01-05T04:05:06.445Z,1024.93
2017-01-05T04:10:05.140Z,1024.83
2017-01-05T04:15:05.140Z,1024.95
2017-01-05T04:20:05.135Z,1024.95
2017-01-05T04:25:05.023Z,1025.07
2017-01-05T04:30:05.336Z,1025.1
2017-01-05T04:35:05.156Z,1025.07
2017-01-05T04:40:05.409Z,1025.22
2017-01-05T04:45:04.477Z,1025.34
2017-01-05T04:50:04.486Z,1025.35
2017-01-05T04:55:05.242Z,1025.46
2017-01-05T05:00:04.404Z,1025.61
2017-01-05T05:05:05.140Z,1025.72
2017-01-05T05:10:05.190Z,1025.85
2017-01-05T05:15:05.074Z,1025.81
2017-01-05T05:20:05.028Z,1025.83
2017-01-05T05:25:04.887Z,1025.84
2017-01-05T05:30:04.757Z,1026.02
2017-01-05T05:35:04.762Z,1026.12
2017-01-05T05:40:04.970Z,1026.06
2017-01-05T05:45:05.014Z,1026.1
2017-01-05T05:50:05.009Z,1026.12
2017-01-05T05:55:05.046Z,1026.21
2017-01-05T06:00:04.712Z,1026.19
2017-01-05T06:05:04.540Z,1026.34
2017-01-05T06:10:04.770Z,1026.59
2017-01-05T06:15:04.559Z,1026.69
2017-01-05T06:20:04.412Z,1026.71
2017-01-05T06:25:04.552Z,1026.88
2017-01-05T06:30:04.713Z,1027.01
2017-01-05T06:35:04.901Z,1027.08
2017-01-05T06:40:05.299Z,1027.15
2017-01-05T06:45:04.373Z,1027.22
2017-01-05T06:50:05.172Z,1027.29
2017-01-05T06:55:05.090Z,1027.42
2017-01-05T07:00:05.128Z,1027.53
2017-01-05T07:05:04.993Z,1027.59
2017-01-05T07:10:05.180Z,1027.7
2017-01-05T07:15:04.781Z,1027.88
2017-01-05T07:20:04.632Z,1028.02
2017-01-05T07:25:05.290Z,1028.11
2017-01-05T07:30:05.345Z,1028.05
2017-01-05T07:35:05.122Z,1028.19
2017-01-05T07:40:05.264Z,1028.27
2017-01-05T07:45:05.150Z,1028.28
2017-01-05T07:50:05.147Z,1028.28
2017-01-05T07:55:05.083Z,1028.4
2017-01-05T08:00:05.238Z,1028.43
2017-01-05T08:05:04.460Z,1028.55
2017-01-05T08:10:04.693Z,1028.65
2017-01-05T08:15:04.498Z,1028.78
2017-01-05T08:20:04.295Z,1028.99
2017-01-05T08:25:05.282Z,1029.2
2017-01-05T08:30:05.395Z,1029.21
2017-01-05T08:35:04.469Z,1029.36
2017-01-05T08:40:04.552Z,1029.56
2017-01-05T08:45:04.428Z,1029.61
2017-01-05T08:50:04.532Z,1029.72
2017-01-05T08:55:04.304Z,1029.87
2017-01-05T09:00:04.408Z,1029.96
2017-01-05T09:05:04.385Z,1030.18
2017-01-05T09:10:04.474Z,1030.26
2017-01-05T09:15:04.687Z,1030.38
2017-01-05T09:20:04.489Z,1030.49
2017-01-05T09:25:04.457Z,1030.66
2017-01-05T09:30:04.563Z,1030.68
2017-01-05T09:35:04.681Z,1030.78
2017-01-05T09:40:04.980Z,1030.84
2017-01-05T09:45:05.139Z,1030.85
2017-01-05T09:50:05.243Z,1030.85
2017-01-05T09:55:04.366Z,1030.96
2017-01-05T10:00:04.454Z,1030.95
2017-01-05T10:05:04.366Z,1031.01
2017-01-05T10:10:04.591Z,1031.07
2017-01-05T10:15:04.728Z,1031.1
2017-01-05T10:20:04.648Z,1031.22
2017-01-05T10:25:04.591Z,1031.26
2017-01-05T10:30:04.590Z,1031.34
2017-01-05T10:35:04.750Z,1031.39
2017-01-05T10:40:04.917Z,1031.48
2017-01-05T10:45:05.046Z,1031.54
2017-01-05T10:50:05.144Z,1031.6
2017-01-05T10:55:05.117Z,1031.52
2017-01-05T11:00:05.170Z,1031.55
2017-01-05T11:05:05.056Z,1031.66
2017-01-05T11:10:05.210Z,1031.63
2017-01-05T11:15:05.111Z,1031.66
2017-01-05T11:20:05.210Z,1031.66
2017-01-05T11:25:05.137Z,1031.62
2017-01-05T11:30:05.037Z,1031.74
2017-01-05T11:35:04.916Z,1031.79
2017-01-05T11:40:05.031Z,1031.8
2017-01-05T11:45:04.757Z,1031.77
2017-01-05T11:50:04.721Z,1031.92
2017-01-05T11:55:04.865Z,1031.94
2017-01-05T12:00:04.744Z,1032.06
2017-01-05T12:05:04.702Z,1032.06
2017-01-05T12:10:04.683Z,1032.05
2017-01-05T12:15:04.588Z,1032.07
2017-01-05T12:20:04.478Z,1032.19
2017-01-05T12:25:04.364Z,1032.22
2017-01-05T12:30:05.254Z,1032.32
2017-01-05T12:35:05.170Z,1032.37
2017-01-05T12:40:04.596Z,1032.44
2017-01-05T12:45:04.611Z,1032.47
2017-01-05T12:50:04.406Z,1032.57
2017-01-05T12:55:04.239Z,1032.66
2017-01-05T13:00:05.311Z,1032.73
2017-01-05T13:05:04.341Z,1032.66
2017-01-05T13:10:04.370Z,1032.73
2017-01-05T13:15:04.327Z,1032.81
2017-01-05T13:20:04.412Z,1032.98
2017-01-05T13:25:05.170Z,1032.95
2017-01-05T13:30:05.005Z,1033.03
2017-01-05T13:35:05.043Z,1033.07
2017-01-05T13:40:05.295Z,1033.3
2017-01-05T13:45:04.945Z,1033.48
2017-01-05T13:50:04.681Z,1033.52
2017-01-05T13:55:04.668Z,1033.54
2017-01-05T14:00:04.415Z,1033.59
2017-01-05T14:05:05.140Z,1033.75
2017-01-05T14:10:05.257Z,1033.81
2017-01-05T14:15:05.134Z,1033.85
2017-01-05T14:20:05.189Z,1033.93
2017-01-05T14:25:04.970Z,1034.01
2017-01-05T14:30:04.960Z,1034.08
2017-01-05T14:35:04.702Z,1034.11
2017-01-05T14:40:04.828Z,1034.09
2017-01-05T14:45:04.911Z,1034.16
2017-01-05T14:50:04.910Z,1034.19
2017-01-05T14:55:04.851Z,1034.25
2017-01-05T15:00:04.631Z,1034.3
2017-01-05T15:05:04.467Z,1034.38
2017-01-05T15:10:04.776Z,1034.49
2017-01-05T15:15:04.701Z,1034.53
2017-01-05T15:20:04.497Z,1034.54
2017-01-05T15:25:04.630Z,1034.66
2017-01-05T15:30:04.633Z,1034.73
2017-01-05T15:35:04.366Z,1034.75
2017-01-05T15:40:04.667Z,1034.84
2017-01-05T15:45:04.856Z,1034.91
2017-01-05T15:50:04.767Z,1035.06
2017-01-05T15:55:04.662Z,1035.31
2017-01-05T16:00:04.650Z,1035.33
2017-01-05T16:05:04.602Z,1035.46
2017-01-05T16:10:04.609Z,1035.45
2017-01-05T16:15:04.743Z,1035.56
2017-01-05T16:20:04.684Z,1035.56
2017-01-05T16:25:04.749Z,1035.55
2017-01-05T16:30:04.646Z,1035.66
2017-01-05T16:35:04.574Z,1035.77
2017-01-05T16:40:04.922Z,1035.78
2017-01-05T16:45:04.720Z,1035.78
2017-01-05T16:50:04.748Z,1035.8
2017-01-05T16:55:04.864Z,1035.96
2017-01-05T17:00:04.845Z,1036.04
2017-01-05T17:05:04.360Z,1036.13
2017-01-05T17:10:04.534Z,1036.11
2017-01-05T17:15:04.630Z,1036.09
2017-01-05T17:20:04.454Z,1036.09
2017-01-05T17:25:04.293Z,1036.23
2017-01-05T17:30:05.453Z,1036.12
2017-01-05T17:35:04.504Z,1036.2
2017-01-05T17:40:04.734Z,1036.27
2017-01-05T17:45:04.515Z,1036.4
2017-01-05T17:50:04.506Z,1036.42
2017-01-05T17:55:04.405Z,1036.48
2017-01-05T18:00:04.371Z,1036.43
2017-01-05T18:05:05.329Z,1036.62
2017-01-05T18:10:04.410Z,1036.67
2017-01-05T18:15:04.488Z,1036.7
2017-01-05T18:20:04.437Z,1036.73
2017-01-05T18:25:04.627Z,1037.01
2017-01-05T18:30:04.673Z,1037.11
2017-01-05T18:35:04.309Z,1037.13
2017-01-05T18:40:04.474Z,1037.22
2017-01-05T18:45:04.479Z,1037.23
2017-01-05T18:50:04.545Z,1037.35
2017-01-05T18:55:04.317Z,1037.35
2017-01-05T19:00:04.403Z,1037.5
2017-01-05T19:05:04.317Z,1037.46
2017-01-05T19:10:04.687Z,1037.43
2017-01-05T19:15:04.856Z,1037.45
2017-01-05T19:20:04.679Z,1037.53
2017-01-05T19:25:04.700Z,1037.57
2017-01-05T19:30:04.535Z,1037.61
2017-01-05T19:35:04.641Z,1037.74
2017-01-05T19:40:04.827Z,1037.76
2017-01-05T19:45:04.817Z,1037.8
2017-01-05T19:50:04.658Z,1037.88
2017-01-05T19:55:04.727Z,1037.9
2017-01-05T20:00:04.665Z,1037.97
2017-01-05T20:05:04.670Z,1038.01
2017-01-05T20:10:04.985Z,1038.08
2017-01-05T20:15:04.874Z,1038.08
2017-01-05T20:20:04.566Z,1038.19
2017-01-05T20:25:04.380Z,1038.26
2017-01-05T20:30:05.489Z,1038.27
2017-01-05T20:35:04.457Z,1038.26
2017-01-05T20:40:04.744Z,1038.38
2017-01-05T20:45:04.900Z,1038.36
2017-01-05T20:50:04.696Z,1038.4
2017-01-05T20:55:04.700Z,1038.5
2017-01-05T21:00:04.774Z,1038.53
2017-01-05T21:05:04.513Z,1038.56
2017-01-05T21:10:04.685Z,1038.61
2017-01-05T21:15:04.456Z,1038.66
2017-01-05T21:20:04.482Z,1038.72
2017-01-05T21:25:05.289Z,1038.73
2017-01-05T21:30:04.368Z,1038.77
2017-01-05T21:35:04.572Z,1038.74
2017-01-05T21:40:04.901Z,1038.98
2017-01-05T21:45:04.890Z,1038.97
2017-01-05T21:50:04.747Z,1039.1
2017-01-05T21:55:04.724Z,1039.19
2017-01-05T22:00:04.866Z,1039.21
2017-01-05T22:05:04.690Z,1039.22
2017-01-05T22:10:04.928Z,1039.29
2017-01-05T22:15:04.698Z,1039.35
2017-01-05T22:20:04.769Z,1039.33
2017-01-05T22:25:04.978Z,1039.39
2017-01-05T22:30:05.402Z,1039.4
2017-01-05T22:35:05.113Z,1039.44
2017-01-05T22:40:05.211Z,1039.42
2017-01-05T22:45:04.928Z,1039.58
2017-01-05T22:50:04.579Z,1039.62
2017-01-05T22:55:04.351Z,1039.71
2017-01-05T23:00:04.546Z,1039.79
2017-01-05T23:05:04.454Z,1039.79
2017-01-05T23:10:04.662Z,1039.78
2017-01-05T23:15:04.683Z,1039.74
2017-01-05T23:20:04.738Z,1039.78
2017-01-05T23:25:04.796Z,1039.74
2017-01-05T23:30:05.012Z,1039.81
2017-01-05T23:35:05.150Z,1039.73
2017-01-05T23:40:05.339Z,1039.8
2017-01-05T23:45:05.393Z,1039.84
2017-01-05T23:50:05.136Z,1039.76
2017-01-05T23:55:05.171Z,1039.74
